Time;durP1;ratioP1;P1;durP2;ratioP2;P2;SDS_P1;SDS_P2;PMS_P1;PMS_P2;Temp;Humidity;BMP_temperature;BMP_pressure;BME280_temperature;BME280_humidity;BME280_pressure;Samples;Min_cycle;Max_cycle;Signal;HPM_P1;HPM_P2
2023/04/08 00:01:54;;;;;;;8.93;5.07;;;7.40;99.90;;;;;;5045313;28;20228;-68
2023/04/08 00:04:22;;;;;;;7.47;4.10;;;7.30;99.90;;;;;;5045770;28;20684;-68
2023/04/08 00:06:50;;;;;;;10.50;4.18;;;7.40;99.90;;;;;;5044580;28;20224;-68
2023/04/08 00:09:20;;;;;;;8.43;6.07;;;7.40;99.90;;;;;;5044370;28;20411;-68
2023/04/08 00:11:47;;;;;;;5.72;3.22;;;7.30;99.90;;;;;;5048269;28;20286;-68
2023/04/08 00:14:14;;;;;;;5.35;4.72;;;7.40;99.90;;;;;;5048874;28;20260;-68
2023/04/08 00:16:41;;;;;;;7.20;4.22;;;7.40;99.90;;;;;;5049555;28;20228;-68
2023/04/08 00:19:08;;;;;;;5.88;4.32;;;7.30;99.90;;;;;;5046284;28;20231;-68
2023/04/08 00:21:35;;;;;;;5.82;5.13;;;7.40;99.90;;;;;;5049655;28;20218;-68
2023/04/08 00:24:01;;;;;;;4.07;3.50;;;7.40;99.90;;;;;;5049155;28;20198;-69
2023/04/08 00:26:29;;;;;;;8.38;4.10;;;7.30;99.90;;;;;;5049733;28;20240;-68
2023/04/08 00:28:56;;;;;;;7.40;3.88;;;7.30;99.90;;;;;;5048927;28;20205;-68
2023/04/08 00:31:23;;;;;;;7.07;3.85;;;7.30;99.90;;;;;;5068313;28;20223;-68
2023/04/08 00:33:50;;;;;;;4.80;4.35;;;7.30;99.90;;;;;;5069074;28;20636;-68
2023/04/08 00:36:18;;;;;;;13.73;5.55;;;7.40;99.90;;;;;;5062522;28;20772;-68
2023/04/08 00:38:44;;;;;;;6.10;4.05;;;7.30;99.90;;;;;;5057425;28;20236;-68
2023/04/08 00:41:12;;;;;;;6.03;5.05;;;7.30;99.90;;;;;;5059446;28;20217;-69
2023/04/08 00:43:40;;;;;;;4.32;3.65;;;7.40;99.90;;;;;;5051522;28;20204;-68
2023/04/08 00:46:08;;;;;;;5.07;4.13;;;7.40;99.90;;;;;;5048489;28;20224;-68
2023/04/08 00:48:35;;;;;;;4.90;4.40;;;7.30;99.90;;;;;;5047073;28;20201;-68
2023/04/08 00:51:02;;;;;;;4.05;3.03;;;7.30;99.90;;;;;;5048635;28;20286;-69
2023/04/08 00:53:31;;;;;;;6.45;4.38;;;7.30;99.90;;;;;;5047520;28;20193;-68
2023/04/08 00:56:00;;;;;;;7.88;3.85;;;7.10;99.90;;;;;;5050447;28;20685;-68
2023/04/08 00:58:28;;;;;;;10.63;3.67;;;7.20;99.90;;;;;;5046878;28;20347;-68
2023/04/08 01:01:03;;;;;;;5.38;4.70;;;7.20;99.90;;;;;;5047458;28;20232;-68
2023/04/08 01:03:41;;;;;;;4.22;3.75;;;7.20;99.90;;;;;;5045387;28;20248;-68
2023/04/08 01:06:13;;;;;;;6.53;3.80;;;7.20;99.90;;;;;;5045188;28;20227;-68
2023/04/08 01:08:42;;;;;;;4.63;4.00;;;7.20;99.90;;;;;;5048495;28;20192;-69
2023/04/08 01:11:13;;;;;;;10.70;4.70;;;7.20;99.90;;;;;;5046852;28;20218;-68
2023/04/08 01:13:42;;;;;;;5.10;2.88;;;7.20;99.90;;;;;;5050353;28;20280;-68
2023/04/08 01:16:15;;;;;;;3.60;3.05;;;7.30;99.90;;;;;;5045695;28;20217;-68
2023/04/08 01:18:46;;;;;;;6.82;5.05;;;7.20;99.90;;;;;;5047105;28;20196;-68
2023/04/08 01:21:16;;;;;;;4.00;3.45;;;7.20;99.90;;;;;;5048284;28;20224;-68
2023/04/08 01:23:58;;;;;;;6.35;4.60;;;7.10;99.90;;;;;;5049655;28;20266;-67
2023/04/08 01:26:28;;;;;;;4.13;3.20;;;7.10;99.90;;;;;;5046748;28;20220;-68
2023/04/08 01:28:57;;;;;;;7.68;5.15;;;7.20;99.90;;;;;;5049879;28;20754;-68
2023/04/08 01:31:26;;;;;;;5.30;4.82;;;7.10;99.90;;;;;;5047189;28;20275;-68
2023/04/08 01:33:54;;;;;;;6.05;4.40;;;7.10;99.90;;;;;;5049735;28;20212;-68
2023/04/08 01:36:24;;;;;;;8.88;4.43;;;7.10;99.90;;;;;;5049782;28;20224;-68
2023/04/08 01:38:51;;;;;;;2.63;2.42;;;7.10;99.90;;;;;;5048823;28;20198;-68
2023/04/08 01:41:20;;;;;;;3.58;3.22;;;7.10;99.90;;;;;;5048090;28;20324;-68
2023/04/08 01:43:50;;;;;;;7.35;4.55;;;7.00;99.90;;;;;;5048635;28;20315;-68
2023/04/08 01:46:18;;;;;;;5.50;3.30;;;7.00;99.90;;;;;;5045482;28;20240;-68
2023/04/08 01:48:48;;;;;;;5.07;4.20;;;7.00;99.90;;;;;;5050027;28;20193;-70
2023/04/08 01:51:22;;;;;;;5.63;3.83;;;7.00;99.90;;;;;;5047887;28;20244;-71
2023/04/08 01:53:49;;;;;;;6.00;5.40;;;6.90;99.90;;;;;;5044650;28;20219;-68
2023/04/08 01:56:16;;;;;;;4.03;3.42;;;6.90;99.90;;;;;;5045502;28;20220;-68
2023/04/08 01:58:51;;;;;;;5.47;3.00;;;6.90;99.90;;;;;;5047151;28;20212;-68
2023/04/08 02:01:22;;;;;;;12.05;5.40;;;6.90;99.90;;;;;;5045666;28;20304;-69
2023/04/08 02:03:51;;;;;;;5.63;3.67;;;6.90;99.90;;;;;;5046127;28;20204;-68
2023/04/08 02:06:19;;;;;;;6.65;3.97;;;6.80;99.90;;;;;;5046089;28;20212;-68
2023/04/08 02:08:47;;;;;;;5.47;3.65;;;6.80;99.90;;;;;;5046190;28;20616;-68
2023/04/08 02:11:14;;;;;;;4.00;3.13;;;6.80;99.90;;;;;;5045921;28;20267;-68
2023/04/08 02:13:41;;;;;;;7.18;3.67;;;6.80;99.90;;;;;;5048962;28;20209;-68
2023/04/08 02:16:15;;;;;;;4.15;3.00;;;6.90;99.90;;;;;;5049832;28;20217;-68
2023/04/08 02:18:46;;;;;;;5.30;4.88;;;6.80;99.90;;;;;;5045679;28;20284;-68
2023/04/08 02:21:15;;;;;;;6.75;3.97;;;6.80;99.90;;;;;;5048299;28;20225;-68
2023/04/08 02:23:45;;;;;;;5.15;4.63;;;6.70;99.90;;;;;;5049763;28;20192;-69
2023/04/08 02:26:14;;;;;;;5.22;4.10;;;6.70;99.90;;;;;;5050901;28;20216;-68
2023/04/08 02:28:43;;;;;;;5.03;3.88;;;6.70;99.90;;;;;;5045558;28;20320;-68
2023/04/08 02:31:13;;;;;;;7.35;3.63;;;6.70;99.90;;;;;;5045551;28;20213;-68
2023/04/08 02:33:42;;;;;;;4.38;3.75;;;6.70;99.90;;;;;;5046147;28;20207;-68
2023/04/08 02:36:12;;;;;;;7.82;5.80;;;6.70;99.90;;;;;;5045972;28;20716;-68
2023/04/08 02:38:39;;;;;;;7.30;4.40;;;6.70;99.90;;;;;;5045166;28;20300;-67
2023/04/08 02:41:07;;;;;;;7.30;4.95;;;6.70;99.90;;;;;;5043080;28;20224;-68
2023/04/08 02:43:34;;;;;;;5.25;2.90;;;6.60;99.90;;;;;;5045900;28;20611;-69
2023/04/08 02:46:02;;;;;;;4.95;3.95;;;6.70;99.90;;;;;;5046590;28;20300;-68
2023/04/08 02:48:33;;;;;;;5.22;3.88;;;6.70;99.90;;;;;;5047384;28;20220;-68
2023/04/08 02:51:00;;;;;;;5.05;4.50;;;6.70;99.90;;;;;;5047919;28;20220;-68
2023/04/08 02:53:27;;;;;;;3.58;2.20;;;6.60;99.90;;;;;;5047231;28;20199;-68
2023/04/08 02:55:54;;;;;;;8.80;5.75;;;6.60;99.90;;;;;;5046817;28;20693;-68
2023/04/08 02:58:22;;;;;;;5.03;3.17;;;6.60;99.90;;;;;;5044990;28;20267;-68
2023/04/08 03:00:49;;;;;;;6.00;4.78;;;6.60;99.90;;;;;;5045783;28;20212;-68
2023/04/08 03:03:17;;;;;;;5.57;4.28;;;6.60;99.90;;;;;;5050672;28;20208;-68
2023/04/08 03:05:46;;;;;;;9.90;5.65;;;6.60;99.90;;;;;;5046390;28;20221;-68
2023/04/08 03:08:14;;;;;;;7.32;4.03;;;6.60;99.90;;;;;;5045343;28;20269;-68
2023/04/08 03:10:41;;;;;;;5.82;4.03;;;6.60;99.90;;;;;;5053269;28;20224;-68
2023/04/08 03:13:09;;;;;;;5.43;3.80;;;6.60;99.90;;;;;;5050064;28;20197;-68
2023/04/08 03:15:37;;;;;;;5.47;3.90;;;6.60;99.90;;;;;;5046603;28;20858;-68
2023/04/08 03:18:07;;;;;;;5.00;3.70;;;6.60;99.90;;;;;;5048726;28;20289;-69
2023/04/08 03:20:34;;;;;;;6.68;5.10;;;6.60;99.90;;;;;;5046359;28;20252;-68
2023/04/08 03:23:03;;;;;;;5.18;3.05;;;6.60;99.90;;;;;;5045958;28;20184;-68
2023/04/08 03:25:30;;;;;;;5.80;4.18;;;6.60;99.90;;;;;;5047243;28;20221;-69
2023/04/08 03:27:58;;;;;;;4.75;3.97;;;6.60;99.90;;;;;;5050621;28;20217;-69
2023/04/08 03:30:25;;;;;;;14.75;4.07;;;6.60;99.90;;;;;;5044867;28;20217;-68
2023/04/08 03:32:52;;;;;;;7.18;4.40;;;6.50;99.90;;;;;;5045442;28;20193;-68
2023/04/08 03:35:19;;;;;;;5.95;4.70;;;6.50;99.90;;;;;;5046030;28;20194;-69
2023/04/08 03:37:46;;;;;;;7.90;2.90;;;6.60;99.90;;;;;;5049395;28;20223;-69
2023/04/08 03:40:15;;;;;;;12.55;4.65;;;6.50;99.90;;;;;;5044212;28;20765;-70
2023/04/08 03:42:42;;;;;;;6.38;4.07;;;6.50;99.90;;;;;;5045067;28;20196;-68
2023/04/08 03:45:09;;;;;;;5.63;3.90;;;6.50;99.90;;;;;;5046786;28;20197;-68
2023/04/08 03:47:36;;;;;;;4.22;2.75;;;6.50;99.90;;;;;;5048826;28;20282;-68
2023/04/08 03:50:03;;;;;;;5.13;3.85;;;6.50;99.90;;;;;;5049829;28;20200;-68
2023/04/08 03:52:30;;;;;;;3.50;3.20;;;6.50;99.90;;;;;;5049016;28;20216;-68
2023/04/08 03:54:57;;;;;;;2.45;2.03;;;6.50;99.90;;;;;;5050538;28;20357;-68
2023/04/08 03:57:25;;;;;;;3.25;2.80;;;6.50;99.90;;;;;;5052726;28;20224;-68
2023/04/08 03:59:51;;;;;;;6.47;3.95;;;6.50;99.90;;;;;;5051363;28;20719;-68
2023/04/08 04:02:18;;;;;;;3.88;3.47;;;6.50;99.90;;;;;;5048520;28;20327;-68
2023/04/08 04:04:45;;;;;;;5.57;3.42;;;6.60;99.90;;;;;;5050528;28;20970;-68
2023/04/08 04:07:12;;;;;;;5.03;3.15;;;6.60;99.90;;;;;;5049197;28;20225;-68
2023/04/08 04:09:38;;;;;;;5.35;3.95;;;6.70;99.90;;;;;;5048791;28;20211;-68
2023/04/08 04:12:05;;;;;;;4.70;4.25;;;6.70;99.90;;;;;;5049795;28;20217;-69
2023/04/08 04:14:34;;;;;;;3.42;2.88;;;6.70;99.90;;;;;;5048852;28;20951;-67
2023/04/08 04:17:00;;;;;;;5.30;2.90;;;6.70;99.90;;;;;;5051002;28;20228;-68
2023/04/08 04:19:30;;;;;;;5.93;4.25;;;6.70;99.90;;;;;;5049716;28;20196;-68
2023/04/08 04:21:57;;;;;;;4.78;3.25;;;6.70;99.90;;;;;;5050528;28;20243;-68
2023/04/08 04:24:24;;;;;;;5.03;2.85;;;6.80;99.90;;;;;;5064947;28;20740;-68
2023/04/08 04:26:51;;;;;;;2.95;2.75;;;6.80;99.90;;;;;;5053092;28;20576;-68
2023/04/08 04:29:17;;;;;;;4.60;3.47;;;6.70;99.90;;;;;;5055277;28;20259;-68
2023/04/08 04:31:46;;;;;;;3.65;2.83;;;6.60;99.90;;;;;;5068908;28;20220;-69
2023/04/08 04:34:12;;;;;;;8.15;6.30;;;6.70;99.90;;;;;;5068665;28;20715;-68
2023/04/08 04:36:39;;;;;;;8.48;4.13;;;6.60;99.90;;;;;;5067809;28;20224;-68
2023/04/08 04:39:06;;;;;;;10.18;3.88;;;6.60;99.90;;;;;;5065299;28;20283;-68
2023/04/08 04:41:37;;;;;;;4.28;3.88;;;6.60;99.90;;;;;;5055031;28;20231;-68
2023/04/08 04:44:04;;;;;;;7.88;4.60;;;6.60;99.90;;;;;;5050527;28;21182;-67
2023/04/08 04:46:31;;;;;;;4.93;3.38;;;6.70;99.90;;;;;;5050393;28;20217;-68
2023/04/08 04:48:59;;;;;;;7.05;5.05;;;6.60;99.90;;;;;;5066015;28;20223;-68
2023/04/08 04:51:27;;;;;;;6.63;4.40;;;6.50;99.90;;;;;;5049592;28;20225;-68
2023/04/08 04:53:53;;;;;;;4.63;4.05;;;6.50;99.90;;;;;;5048825;28;20212;-68
2023/04/08 04:56:20;;;;;;;5.25;4.75;;;6.40;99.90;;;;;;5057403;28;20309;-68
2023/04/08 04:58:47;;;;;;;4.55;3.55;;;6.40;99.90;;;;;;5048343;28;20291;-68
2023/04/08 05:01:14;;;;;;;14.25;3.70;;;6.40;99.90;;;;;;5064406;28;20227;-68
2023/04/08 05:03:41;;;;;;;5.40;4.00;;;6.40;99.90;;;;;;5042327;28;20216;-68
2023/04/08 05:06:09;;;;;;;7.38;4.85;;;6.40;99.90;;;;;;5048986;28;20222;-68
2023/04/08 05:08:36;;;;;;;5.22;4.07;;;6.40;99.90;;;;;;5048164;28;20287;-68
2023/04/08 05:11:02;;;;;;;6.75;4.32;;;6.30;99.90;;;;;;5061013;28;20560;-68
2023/04/08 05:13:29;;;;;;;9.68;4.55;;;6.30;99.90;;;;;;5054894;28;20189;-68
2023/04/08 05:15:56;;;;;;;9.00;7.20;;;6.30;99.90;;;;;;5057937;28;20223;-68
2023/04/08 05:18:23;;;;;;;6.20;5.30;;;6.40;99.90;;;;;;5055292;28;20194;-68
2023/04/08 05:20:50;;;;;;;6.78;4.85;;;6.40;99.90;;;;;;5062757;28;20219;-68
2023/04/08 05:23:18;;;;;;;5.00;3.55;;;6.40;99.90;;;;;;5056207;28;20197;-68
2023/04/08 05:25:45;;;;;;;4.55;4.10;;;6.40;99.90;;;;;;5054840;28;20228;-68
2023/04/08 05:28:12;;;;;;;5.53;4.10;;;6.40;99.90;;;;;;5055405;28;20213;-68
2023/04/08 05:30:39;;;;;;;11.68;6.88;;;6.40;99.90;;;;;;5053749;28;20238;-68
2023/04/08 05:33:05;;;;;;;8.57;3.90;;;6.40;99.90;;;;;;5064829;28;20205;-68
2023/04/08 05:35:32;;;;;;;5.97;3.85;;;6.40;99.90;;;;;;5067929;28;20224;-68
2023/04/08 05:37:59;;;;;;;3.95;3.50;;;6.40;99.90;;;;;;5060705;28;20209;-68
2023/04/08 05:40:27;;;;;;;8.02;6.45;;;6.50;99.90;;;;;;5056557;28;20249;-68
2023/04/08 05:42:54;;;;;;;10.43;6.03;;;6.40;99.90;;;;;;5051491;28;20208;-67
2023/04/08 05:45:21;;;;;;;5.93;4.05;;;6.40;99.90;;;;;;5048536;28;20228;-68
2023/04/08 05:47:48;;;;;;;8.40;6.22;;;6.50;99.90;;;;;;5052296;28;20726;-68
2023/04/08 05:50:15;;;;;;;7.38;4.88;;;6.60;99.90;;;;;;5054863;28;20214;-68
2023/04/08 05:52:45;;;;;;;6.20;4.07;;;6.60;99.90;;;;;;5060180;28;20208;-67
2023/04/08 05:55:12;;;;;;;5.75;4.40;;;6.70;99.90;;;;;;5048210;28;20208;-68
2023/04/08 05:57:40;;;;;;;9.82;4.63;;;6.60;99.90;;;;;;5062397;28;20204;-68
2023/04/08 06:00:09;;;;;;;6.00;3.28;;;6.70;99.90;;;;;;5057478;28;20196;-68
2023/04/08 06:02:36;;;;;;;5.25;4.38;;;6.60;99.90;;;;;;5065552;28;20304;-68
2023/04/08 06:05:03;;;;;;;9.02;3.90;;;6.70;99.90;;;;;;5048716;28;20200;-68
2023/04/08 06:07:30;;;;;;;5.35;4.03;;;6.70;99.90;;;;;;5060662;28;20202;-68
2023/04/08 06:09:57;;;;;;;4.03;3.72;;;6.70;99.90;;;;;;5065780;28;20205;-68
2023/04/08 06:12:24;;;;;;;4.13;3.70;;;6.70;99.90;;;;;;5049413;28;20216;-68
2023/04/08 06:14:55;;;;;;;5.40;4.28;;;6.60;99.90;;;;;;5048075;28;20655;-68
2023/04/08 06:17:22;;;;;;;6.38;4.72;;;6.70;99.90;;;;;;5047266;28;20558;-67
2023/04/08 06:19:49;;;;;;;5.57;3.00;;;6.70;99.90;;;;;;5045788;28;20201;-68
2023/04/08 06:22:16;;;;;;;10.32;4.75;;;6.70;99.90;;;;;;5048025;28;20216;-68
2023/04/08 06:24:43;;;;;;;7.70;3.47;;;6.70;99.90;;;;;;5046707;28;20658;-68
2023/04/08 06:27:10;;;;;;;5.72;4.18;;;6.70;99.90;;;;;;5049489;28;20707;-69
2023/04/08 06:29:38;;;;;;;7.68;4.60;;;6.70;99.90;;;;;;5048188;28;20237;-68
2023/04/08 06:32:06;;;;;;;5.13;4.32;;;6.80;99.90;;;;;;5047365;28;20265;-68
2023/04/08 06:34:33;;;;;;;4.30;3.90;;;6.80;99.90;;;;;;5048207;28;20580;-69
2023/04/08 06:37:00;;;;;;;8.20;5.35;;;6.80;99.90;;;;;;5045610;28;20216;-69
2023/04/08 06:39:28;;;;;;;6.13;4.18;;;6.90;99.90;;;;;;5045913;28;20196;-70
2023/04/08 06:41:54;;;;;;;5.03;3.97;;;7.00;99.90;;;;;;5048913;28;20225;-68
2023/04/08 06:44:21;;;;;;;5.40;4.55;;;6.90;99.90;;;;;;5048103;28;20212;-68
2023/04/08 06:46:48;;;;;;;6.00;4.47;;;6.90;99.90;;;;;;5048162;28;20229;-68
2023/04/08 06:49:16;;;;;;;7.22;4.00;;;6.90;99.90;;;;;;5048200;28;20225;-68
2023/04/08 06:51:43;;;;;;;6.30;4.32;;;6.80;99.90;;;;;;5046942;28;20222;-68
2023/04/08 06:54:10;;;;;;;7.07;4.55;;;6.80;99.90;;;;;;5062762;28;20195;-68
2023/04/08 06:56:36;;;;;;;6.90;5.15;;;7.00;99.90;;;;;;5049508;28;20229;-68
2023/04/08 06:59:04;;;;;;;6.07;4.00;;;7.00;99.90;;;;;;5058023;28;20189;-67
2023/04/08 07:01:30;;;;;;;5.00;4.05;;;7.00;99.90;;;;;;5066774;28;20308;-67
2023/04/08 07:03:57;;;;;;;5.90;4.10;;;7.10;99.90;;;;;;5065494;28;20191;-67
2023/04/08 07:06:25;;;;;;;6.85;4.50;;;7.10;99.90;;;;;;5054739;28;20336;-68
2023/04/08 07:08:52;;;;;;;4.93;3.17;;;7.10;99.90;;;;;;5065590;28;20235;-68
2023/04/08 07:11:19;;;;;;;4.53;4.10;;;7.20;99.90;;;;;;5047225;28;20220;-68
2023/04/08 07:13:46;;;;;;;6.32;5.22;;;7.30;99.90;;;;;;5049453;28;20201;-68
2023/04/08 07:16:13;;;;;;;7.95;4.70;;;7.30;99.90;;;;;;5049924;28;20220;-68
2023/04/08 07:18:41;;;;;;;10.85;4.97;;;7.30;99.90;;;;;;5056448;28;20206;-68
2023/04/08 07:21:08;;;;;;;7.10;4.90;;;7.40;99.90;;;;;;5056551;28;20215;-67
2023/04/08 07:23:36;;;;;;;7.05;5.85;;;7.30;99.90;;;;;;5065875;28;20204;-68
2023/04/08 07:26:04;;;;;;;4.80;3.47;;;7.20;99.90;;;;;;5038551;28;20212;-68
2023/04/08 07:28:31;;;;;;;9.48;6.18;;;7.20;99.90;;;;;;5062829;28;20216;-68
2023/04/08 07:31:07;;;;;;;9.40;7.10;;;7.20;99.90;;;;;;5058587;28;20247;-68
2023/04/08 07:33:34;;;;;;;7.20;6.03;;;7.10;99.90;;;;;;5043350;28;20650;-68
2023/04/08 07:36:01;;;;;;;5.22;4.70;;;7.10;99.90;;;;;;5055536;28;20213;-68
2023/04/08 07:38:28;;;;;;;7.45;4.03;;;7.10;99.90;;;;;;5049203;28;20192;-68
2023/04/08 07:40:56;;;;;;;12.63;6.18;;;7.10;99.90;;;;;;5051027;28;20220;-68
2023/04/08 07:43:22;;;;;;;6.18;5.57;;;7.20;99.90;;;;;;5060807;28;20208;-67
2023/04/08 07:45:50;;;;;;;6.57;3.53;;;7.30;99.90;;;;;;5054072;28;20258;-68
2023/04/08 07:48:16;;;;;;;5.90;3.45;;;7.20;99.90;;;;;;5052461;28;20196;-68
2023/04/08 07:50:44;;;;;;;7.63;5.22;;;7.40;99.90;;;;;;5052507;28;20226;-68
2023/04/08 07:53:11;;;;;;;4.63;4.10;;;7.50;99.90;;;;;;5054353;28;20748;-67
2023/04/08 07:55:39;;;;;;;5.97;3.72;;;7.50;99.90;;;;;;5054608;28;20305;-68
2023/04/08 07:58:07;;;;;;;6.15;4.07;;;7.60;99.90;;;;;;5030936;28;20203;-68
2023/04/08 08:00:34;;;;;;;5.95;3.75;;;7.70;99.90;;;;;;5051416;28;20226;-68
2023/04/08 08:03:00;;;;;;;6.95;3.78;;;7.80;99.90;;;;;;5052271;28;20225;-68
2023/04/08 08:05:27;;;;;;;9.25;5.60;;;7.90;99.90;;;;;;5054000;28;20331;-68
2023/04/08 08:07:54;;;;;;;6.17;4.23;;;7.90;99.90;;;;;;5056121;28;20196;-68
2023/04/08 08:10:21;;;;;;;5.63;4.27;;;8.10;99.90;;;;;;5067703;28;20666;-68
2023/04/08 08:12:48;;;;;;;6.70;4.10;;;8.20;99.90;;;;;;5063699;28;20634;-68
2023/04/08 08:15:16;;;;;;;7.70;4.23;;;8.20;99.90;;;;;;5050070;28;20667;-70
2023/04/08 08:17:43;;;;;;;6.03;4.83;;;8.20;99.90;;;;;;5067898;28;20657;-68
2023/04/08 08:20:11;;;;;;;2.90;2.60;;;8.30;99.90;;;;;;5049576;28;20635;-68
2023/04/08 08:22:39;;;;;;;9.47;3.90;;;8.30;99.90;;;;;;5060597;28;20636;-68
2023/04/08 08:25:08;;;;;;;6.37;3.53;;;8.40;99.90;;;;;;5049864;28;20639;-68
2023/04/08 08:27:35;;;;;;;5.97;3.07;;;8.30;99.90;;;;;;5056817;28;20634;-68
2023/04/08 08:30:02;;;;;;;5.87;4.40;;;8.30;99.90;;;;;;5068454;28;20667;-68
2023/04/08 08:32:30;;;;;;;5.20;4.37;;;8.40;99.90;;;;;;5053556;28;20664;-68
2023/04/08 08:34:57;;;;;;;9.93;5.17;;;8.40;99.90;;;;;;5043863;28;20742;-68
2023/04/08 08:37:24;;;;;;;4.60;3.47;;;8.50;99.90;;;;;;5058726;28;20654;-67
2023/04/08 08:39:50;;;;;;;6.60;5.13;;;8.50;99.90;;;;;;5049774;28;20634;-68
2023/04/08 08:42:21;;;;;;;4.30;3.80;;;8.70;99.90;;;;;;5058375;28;21501;-68
2023/04/08 08:44:48;;;;;;;5.20;4.10;;;8.70;99.90;;;;;;5068912;28;20639;-67
2023/04/08 08:47:15;;;;;;;4.97;3.93;;;8.80;99.90;;;;;;5059319;28;21314;-68
2023/04/08 08:49:44;;;;;;;6.80;5.07;;;9.00;99.90;;;;;;5048533;28;20659;-68
2023/04/08 08:52:15;;;;;;;5.80;5.37;;;9.00;99.90;;;;;;5052507;28;20658;-68
2023/04/08 08:54:42;;;;;;;6.10;5.00;;;9.00;99.90;;;;;;5063471;28;20615;-68
2023/04/08 08:57:17;;;;;;;5.50;3.87;;;9.00;99.90;;;;;;5060384;28;20659;-68
2023/04/08 08:59:46;;;;;;;7.60;7.00;;;8.80;99.90;;;;;;5048098;28;20624;-68
2023/04/08 09:02:24;;;;;;;5.37;4.20;;;8.80;99.90;;;;;;5066883;28;20673;-68
2023/04/08 09:04:58;;;;;;;5.77;5.17;;;8.80;99.90;;;;;;5068262;28;21210;-68
2023/04/08 09:07:26;;;;;;;5.53;4.70;;;8.90;99.90;;;;;;5056400;28;20658;-68
2023/04/08 09:09:54;;;;;;;6.40;5.50;;;9.20;99.90;;;;;;5054645;28;20674;-68
2023/04/08 09:12:22;;;;;;;6.60;5.07;;;9.30;99.90;;;;;;5061155;28;21393;-68
2023/04/08 09:14:48;;;;;;;7.03;4.50;;;9.50;99.90;;;;;;5067735;28;20623;-68
2023/04/08 09:17:16;;;;;;;5.90;5.40;;;9.60;99.20;;;;;;5066194;28;20765;-68
2023/04/08 09:20:10;;;;;;;5.67;4.43;;;9.80;99.10;;;;;;5067403;28;20677;-68
2023/04/08 09:22:56;;;;;;;5.40;4.90;;;9.90;98.20;;;;;;5058973;28;20684;-68
2023/04/08 09:25:24;;;;;;;8.17;5.10;;;9.90;96.90;;;;;;5060585;28;20619;-68
2023/04/08 09:27:52;;;;;;;6.40;5.40;;;9.90;95.60;;;;;;5055704;28;20628;-68
2023/04/08 09:30:20;;;;;;;8.60;5.20;;;9.90;95.50;;;;;;5067571;28;21011;-68
2023/04/08 09:32:50;;;;;;;6.13;5.47;;;10.00;95.80;;;;;;5066118;28;20624;-69
2023/04/08 09:35:19;;;;;;;5.87;5.07;;;10.10;95.70;;;;;;5048719;28;20715;-68
2023/04/08 09:37:47;;;;;;;4.60;4.13;;;10.30;95.50;;;;;;5053237;28;20659;-68
2023/04/08 09:40:15;;;;;;;8.40;4.73;;;10.40;95.70;;;;;;5060310;28;20628;-68
2023/04/08 09:42:47;;;;;;;6.03;4.73;;;10.30;95.10;;;;;;5050640;28;20655;-68
2023/04/08 09:45:15;;;;;;;16.73;5.97;;;10.40;95.50;;;;;;5048485;28;20624;-68
2023/04/08 09:47:52;;;;;;;6.50;4.70;;;10.20;94.00;;;;;;5060783;28;20630;-68
2023/04/08 09:50:26;;;;;;;7.87;6.10;;;10.30;94.50;;;;;;5066699;28;20668;-68
2023/04/08 09:52:57;;;;;;;6.40;5.10;;;10.30;93.90;;;;;;5050404;28;20634;-69
2023/04/08 09:55:27;;;;;;;8.10;5.70;;;10.30;93.90;;;;;;5059524;28;20658;-69
2023/04/08 09:57:59;;;;;;;8.07;6.23;;;10.50;94.30;;;;;;5065142;28;20638;-68
2023/04/08 10:00:32;;;;;;;9.87;5.20;;;10.30;93.30;;;;;;5051580;28;20639;-69
2023/04/08 10:03:06;;;;;;;6.70;5.47;;;10.60;93.90;;;;;;5050544;28;20644;-69
2023/04/08 10:05:37;;;;;;;8.03;4.10;;;10.60;92.40;;;;;;5047714;28;21264;-69
2023/04/08 10:08:05;;;;;;;5.87;4.17;;;10.70;93.00;;;;;;5035837;28;20627;-68
2023/04/08 10:10:33;;;;;;;6.83;5.40;;;10.90;92.90;;;;;;5045304;28;21385;-68
2023/04/08 10:13:01;;;;;;;6.40;5.27;;;10.80;91.10;;;;;;5063880;28;20640;-68
2023/04/08 10:15:29;;;;;;;6.23;4.73;;;10.70;91.20;;;;;;5047804;28;20742;-68
2023/04/08 10:18:17;;;;;;;5.87;3.80;;;11.00;91.70;;;;;;5047128;28;20633;-69
2023/04/08 10:20:46;;;;;;;13.20;4.97;;;11.10;91.20;;;;;;5027604;28;20769;-68
2023/04/08 10:23:14;;;;;;;7.13;5.40;;;11.10;90.10;;;;;;5047917;28;20628;-68
2023/04/08 10:25:42;;;;;;;8.07;5.13;;;10.80;90.00;;;;;;5049159;28;20651;-68
2023/04/08 10:28:25;;;;;;;7.90;6.07;;;10.90;91.20;;;;;;5057878;28;20632;-69
2023/04/08 10:30:53;;;;;;;6.27;5.63;;;11.10;90.50;;;;;;5047271;28;20696;-68
2023/04/08 10:33:23;;;;;;;9.07;4.70;;;11.00;87.70;;;;;;5050995;28;20665;-68
2023/04/08 10:35:54;;;;;;;6.57;4.20;;;10.80;87.20;;;;;;5064261;28;20713;-68
2023/04/08 10:38:21;;;;;;;6.50;5.60;;;10.70;88.90;;;;;;5048308;28;20648;-68
2023/04/08 10:40:50;;;;;;;7.57;6.53;;;10.70;87.60;;;;;;5065058;28;20681;-69
2023/04/08 10:43:17;;;;;;;6.97;4.90;;;10.80;89.30;;;;;;5053894;28;20632;-68
2023/04/08 10:45:49;;;;;;;8.23;5.23;;;10.80;88.10;;;;;;5056219;28;20645;-68
2023/04/08 10:48:18;;;;;;;5.13;4.40;;;10.90;88.40;;;;;;5062690;28;20628;-68
2023/04/08 10:50:54;;;;;;;9.13;6.00;;;10.90;87.80;;;;;;5036886;28;20683;-68
2023/04/08 10:53:26;;;;;;;6.50;4.63;;;10.80;89.20;;;;;;5059693;28;20627;-68
2023/04/08 10:55:52;;;;;;;8.77;4.77;;;10.70;86.60;;;;;;5049644;28;20991;-68
2023/04/08 10:58:19;;;;;;;7.97;4.73;;;10.70;86.60;;;;;;5062601;28;20619;-68
2023/04/08 11:00:46;;;;;;;6.30;5.10;;;10.50;84.80;;;;;;5052704;28;20652;-68
2023/04/08 11:03:13;;;;;;;6.60;5.73;;;10.10;82.80;;;;;;5047945;28;20750;-67
2023/04/08 11:05:41;;;;;;;7.30;5.00;;;10.00;84.40;;;;;;5047711;28;20755;-69
2023/04/08 11:08:09;;;;;;;6.90;4.70;;;9.90;85.20;;;;;;5048170;28;20636;-68
2023/04/08 11:10:38;;;;;;;6.10;4.43;;;9.90;86.40;;;;;;5048842;28;20769;-68
2023/04/08 11:13:08;;;;;;;6.47;4.87;;;9.90;86.50;;;;;;5064813;28;20619;-68
2023/04/08 11:15:36;;;;;;;8.00;5.60;;;10.00;85.30;;;;;;5054345;28;20738;-68
2023/04/08 11:18:03;;;;;;;11.00;4.90;;;10.00;84.80;;;;;;5049773;28;20633;-69
2023/04/08 11:20:33;;;;;;;6.37;5.77;;;9.90;87.30;;;;;;5057146;28;20651;-68
2023/04/08 11:23:00;;;;;;;5.10;4.20;;;9.80;86.00;;;;;;5053647;28;20721;-67
2023/04/08 11:25:28;;;;;;;6.47;4.27;;;9.80;87.50;;;;;;5056942;28;20707;-66
2023/04/08 11:27:55;;;;;;;8.83;4.73;;;9.90;87.20;;;;;;5058183;28;20617;-66
2023/04/08 11:30:23;;;;;;;6.13;4.57;;;9.90;87.10;;;;;;5058858;28;20662;-66
2023/04/08 11:32:51;;;;;;;6.30;5.40;;;10.10;86.90;;;;;;5066701;28;20631;-66
2023/04/08 11:35:18;;;;;;;9.13;5.30;;;10.30;87.70;;;;;;5061660;28;20719;-67
2023/04/08 11:37:46;;;;;;;6.27;5.30;;;10.40;87.70;;;;;;5048455;28;20635;-66
2023/04/08 11:40:19;;;;;;;6.93;4.53;;;10.40;86.40;;;;;;5047989;28;20631;-68
2023/04/08 11:42:47;;;;;;;9.43;5.50;;;10.20;83.00;;;;;;5047144;28;20621;-69
2023/04/08 11:45:16;;;;;;;5.30;4.80;;;10.30;86.80;;;;;;5048201;28;21016;-68
2023/04/08 11:47:44;;;;;;;7.40;5.37;;;10.40;86.90;;;;;;5045943;28;20728;-68
2023/04/08 11:50:11;;;;;;;5.73;4.93;;;10.60;86.90;;;;;;5056387;28;20667;-68
2023/04/08 11:52:46;;;;;;;5.27;4.77;;;10.50;87.20;;;;;;5060347;28;20633;-68
2023/04/08 11:55:23;;;;;;;6.80;5.43;;;10.40;84.80;;;;;;5049998;28;20682;-68
2023/04/08 11:57:51;;;;;;;6.53;5.10;;;10.10;84.30;;;;;;5054651;28;20627;-67
2023/04/08 12:00:19;;;;;;;4.27;3.87;;;10.10;84.90;;;;;;5060694;28;20624;-69
2023/04/08 12:02:50;;;;;;;8.63;6.30;;;10.20;86.30;;;;;;5049627;28;20780;-71
2023/04/08 12:05:20;;;;;;;5.80;4.50;;;10.40;86.30;;;;;;5065130;28;20639;-71
2023/04/08 12:07:49;;;;;;;6.17;4.97;;;10.50;86.70;;;;;;5050709;28;20620;-71
2023/04/08 12:10:16;;;;;;;5.83;5.23;;;10.50;86.40;;;;;;5049986;28;21238;-70
2023/04/08 12:12:43;;;;;;;7.27;4.53;;;10.70;86.00;;;;;;5051794;28;20626;-70
2023/04/08 12:15:12;;;;;;;9.00;5.33;;;10.80;87.30;;;;;;5054882;28;20735;-69
2023/04/08 12:17:38;;;;;;;7.87;5.93;;;10.90;86.90;;;;;;5052877;28;20639;-69
2023/04/08 12:20:06;;;;;;;6.30;5.50;;;10.90;85.20;;;;;;5062474;28;20622;-68
2023/04/08 12:22:33;;;;;;;4.83;4.33;;;10.80;85.40;;;;;;5057464;28;20635;-69
2023/04/08 12:25:01;;;;;;;5.80;5.20;;;10.80;85.80;;;;;;5050287;28;20978;-69
2023/04/08 12:27:28;;;;;;;8.87;5.77;;;10.80;85.20;;;;;;5052450;28;21216;-70
2023/04/08 12:29:56;;;;;;;7.00;5.60;;;10.60;82.60;;;;;;5048423;28;20709;-69
2023/04/08 12:32:25;;;;;;;6.93;4.63;;;10.60;85.60;;;;;;5049259;28;20669;-70
2023/04/08 12:34:52;;;;;;;7.67;6.20;;;10.70;86.20;;;;;;5050525;28;20715;-69
2023/04/08 12:37:19;;;;;;;9.60;6.10;;;10.70;88.00;;;;;;5050726;28;20678;-69
2023/04/08 12:39:46;;;;;;;7.30;5.80;;;10.80;85.10;;;;;;5048769;28;20988;-69
2023/04/08 12:42:13;;;;;;;5.07;4.40;;;10.80;85.20;;;;;;5049166;28;20656;-68
2023/04/08 12:44:40;;;;;;;7.20;5.80;;;10.60;84.20;;;;;;5048017;28;20620;-68
2023/04/08 12:47:08;;;;;;;7.60;6.40;;;10.40;85.40;;;;;;5045439;28;21207;-72
2023/04/08 12:49:36;;;;;;;7.13;5.30;;;10.50;86.30;;;;;;5054951;28;20636;-68
2023/04/08 12:52:04;;;;;;;9.37;5.27;;;10.40;86.20;;;;;;5057856;28;20655;-69
2023/04/08 12:54:31;;;;;;;5.90;5.33;;;10.30;84.00;;;;;;5050847;28;20706;-68
2023/04/08 12:56:58;;;;;;;8.40;5.70;;;10.10;85.10;;;;;;5048870;28;20677;-68
2023/04/08 12:59:25;;;;;;;9.50;5.60;;;10.00;84.90;;;;;;5050443;28;20716;-69